Time;durP1;ratioP1;P1;durP2;ratioP2;P2;SDS_P1;SDS_P2;PMS_P1;PMS_P2;Temp;Humidity;BMP_temperature;BMP_pressure;BME280_temperature;BME280_humidity;BME280_pressure;Samples;Min_cycle;Max_cycle;Signal;HPM_P1;HPM_P2
2023/06/11 00:01:08;;;;;;;437.95;417.73;;;15.40;84.60;;;;;;5036175;28;20671;-85
2023/06/11 00:03:40;;;;;;;501.63;478.80;;;15.40;85.00;;;;;;5035385;28;20022;-86
2023/06/11 00:06:07;;;;;;;461.38;441.20;;;15.40;85.20;;;;;;5037025;28;20029;-85
2023/06/11 00:08:33;;;;;;;375.15;359.65;;;15.30;86.30;;;;;;5039777;28;20034;-86
2023/06/11 00:10:58;;;;;;;413.67;395.73;;;15.30;86.10;;;;;;5037433;28;20041;-86
2023/06/11 00:13:25;;;;;;;408.08;390.42;;;15.30;86.00;;;;;;5031612;28;20463;-86
2023/06/11 00:15:51;;;;;;;396.85;379.40;;;15.30;86.50;;;;;;5033387;28;20025;-86
2023/06/11 00:18:16;;;;;;;431.25;412.27;;;15.20;86.40;;;;;;5034603;28;20032;-85
2023/06/11 00:20:43;;;;;;;395.23;378.20;;;15.20;86.80;;;;;;5036510;28;20049;-86
2023/06/11 00:23:09;;;;;;;376.55;360.63;;;15.20;86.80;;;;;;5039603;28;20055;-86
2023/06/11 00:25:35;;;;;;;429.20;410.63;;;15.20;86.60;;;;;;5032054;28;20049;-85
2023/06/11 00:28:00;;;;;;;399.50;382.48;;;15.10;87.60;;;;;;5034296;28;20041;-86
2023/06/11 00:30:26;;;;;;;426.10;407.08;;;15.10;88.00;;;;;;5015751;28;20489;-86
2023/06/11 00:32:52;;;;;;;349.33;334.85;;;15.00;88.40;;;;;;5035954;28;20568;-87
2023/06/11 00:35:18;;;;;;;473.42;452.52;;;15.00;88.90;;;;;;5036666;28;20087;-87
2023/06/11 00:37:43;;;;;;;392.02;374.85;;;15.00;88.60;;;;;;5032360;28;20029;-86
2023/06/11 00:40:09;;;;;;;386.67;370.45;;;15.10;88.70;;;;;;5034918;28;20100;-85
2023/06/11 00:42:36;;;;;;;301.92;289.50;;;14.90;89.10;;;;;;5034963;28;20025;-85
2023/06/11 00:45:05;;;;;;;421.58;403.23;;;15.00;89.00;;;;;;5035834;28;20033;-86
2023/06/11 00:47:32;;;;;;;206.25;197.90;;;15.00;89.10;;;;;;5035776;28;20540;-88
2023/06/11 00:49:58;;;;;;;403.50;386.25;;;14.90;89.80;;;;;;5035722;28;20832;-87
2023/06/11 00:52:25;;;;;;;405.70;388.63;;;14.90;89.80;;;;;;5038398;28;20087;-87
2023/06/11 00:54:52;;;;;;;386.10;368.80;;;14.90;89.90;;;;;;5049872;28;20029;-87
2023/06/11 00:57:22;;;;;;;386.42;369.95;;;14.90;90.00;;;;;;5033710;28;20032;-87
2023/06/11 00:59:50;;;;;;;290.38;278.38;;;14.80;89.90;;;;;;5037610;28;20135;-87
2023/06/11 01:02:22;;;;;;;305.58;293.38;;;14.80;90.10;;;;;;5030791;28;20041;-85
2023/06/11 01:04:57;;;;;;;327.95;314.40;;;14.90;90.10;;;;;;5035857;28;20028;-86
2023/06/11 01:07:30;;;;;;;263.40;252.25;;;14.80;90.20;;;;;;5037139;28;20028;-86
2023/06/11 01:09:56;;;;;;;295.25;283.05;;;14.80;90.30;;;;;;5030894;28;20032;-86
2023/06/11 01:12:22;;;;;;;352.10;336.52;;;14.70;90.20;;;;;;5037478;28;20033;-85
2023/06/11 01:14:48;;;;;;;269.15;258.30;;;14.70;90.50;;;;;;5030111;28;20041;-87
2023/06/11 01:17:21;;;;;;;312.50;299.15;;;14.60;90.70;;;;;;5031874;28;20091;-86
2023/06/11 01:20:10;;;;;;;317.45;304.05;;;14.70;90.80;;;;;;5046522;28;20069;-87
2023/06/11 01:23:17;;;;;;;164.25;157.30;;;14.70;90.70;;;;;;5028315;28;20025;-86
2023/06/11 01:26:08;;;;;;;220.80;211.93;;;14.60;91.00;;;;;;5034251;28;20497;-85
2023/06/11 01:28:36;;;;;;;203.95;195.48;;;14.60;91.10;;;;;;5029207;28;20033;-85
2023/06/11 01:31:08;;;;;;;243.50;233.57;;;14.60;91.10;;;;;;5032519;28;20038;-85
2023/06/11 01:33:35;;;;;;;294.58;282.67;;;14.50;91.20;;;;;;5034830;28;20553;-86
2023/06/11 01:36:01;;;;;;;238.35;229.00;;;14.50;91.30;;;;;;5028735;28;20481;-85
2023/06/11 01:38:34;;;;;;;261.60;250.95;;;14.40;91.50;;;;;;5033391;28;20048;-85
2023/06/11 01:41:01;;;;;;;218.07;208.93;;;14.40;91.70;;;;;;5031450;28;20362;-85
2023/06/11 01:43:28;;;;;;;201.35;193.35;;;14.40;91.90;;;;;;5032453;28;20032;-86
2023/06/11 01:45:55;;;;;;;253.93;242.93;;;14.30;91.90;;;;;;5034276;28;20104;-87
2023/06/11 01:48:21;;;;;;;236.73;227.13;;;14.30;92.00;;;;;;5030179;28;20108;-86
2023/06/11 01:50:47;;;;;;;220.18;211.13;;;14.30;92.10;;;;;;5037073;28;20025;-86
2023/06/11 01:53:12;;;;;;;249.07;239.27;;;14.20;92.30;;;;;;5030526;28;20056;-87
2023/06/11 01:55:39;;;;;;;252.32;241.93;;;14.20;92.50;;;;;;5029491;28;20378;-85
2023/06/11 01:58:05;;;;;;;137.90;132.10;;;14.20;92.40;;;;;;5048065;28;20037;-85
2023/06/11 02:00:31;;;;;;;221.52;212.45;;;14.20;92.70;;;;;;5032598;28;20083;-86
2023/06/11 02:02:56;;;;;;;197.90;189.35;;;14.20;92.60;;;;;;5034371;28;20032;-87
2023/06/11 02:05:22;;;;;;;222.23;213.43;;;14.20;92.70;;;;;;5033522;28;20468;-87
2023/06/11 02:07:48;;;;;;;233.63;223.45;;;14.00;92.80;;;;;;5033053;28;20034;-85
2023/06/11 02:10:13;;;;;;;258.35;246.85;;;14.10;93.10;;;;;;5035006;28;20091;-86
2023/06/11 02:12:39;;;;;;;260.98;248.85;;;14.00;93.30;;;;;;5036516;28;20064;-87
2023/06/11 02:15:06;;;;;;;248.95;238.23;;;13.90;93.60;;;;;;5035739;28;20033;-84
2023/06/11 02:17:31;;;;;;;262.75;251.05;;;14.00;93.70;;;;;;5052783;28;20091;-85
2023/06/11 02:19:57;;;;;;;222.45;213.57;;;14.00;93.70;;;;;;5033755;28;20041;-84
2023/06/11 02:22:23;;;;;;;240.43;230.55;;;14.00;93.80;;;;;;5033269;28;20394;-87
2023/06/11 02:24:48;;;;;;;224.55;215.35;;;13.90;93.80;;;;;;5039309;28;20487;-86
2023/06/11 02:27:14;;;;;;;300.02;285.27;;;13.90;94.00;;;;;;5035712;28;20868;-84
2023/06/11 02:29:40;;;;;;;420.98;390.95;;;13.90;94.00;;;;;;5040435;28;20034;-87
2023/06/11 02:32:06;;;;;;;187.15;179.32;;;13.90;94.10;;;;;;5036080;28;20133;-85
2023/06/11 02:34:32;;;;;;;216.07;206.73;;;13.90;94.50;;;;;;5035405;28;20036;-86
2023/06/11 02:36:58;;;;;;;235.02;225.00;;;13.90;94.40;;;;;;5019234;28;20033;-86
2023/06/11 02:39:23;;;;;;;292.75;278.80;;;13.80;94.50;;;;;;5033315;28;20481;-86
2023/06/11 02:41:49;;;;;;;278.65;266.50;;;13.90;94.60;;;;;;5022556;28;20021;-85
2023/06/11 02:44:15;;;;;;;275.70;263.27;;;13.70;94.90;;;;;;5036097;28;20060;-86
2023/06/11 02:46:40;;;;;;;350.90;334.52;;;13.70;95.30;;;;;;5032988;28;20068;-85
2023/06/11 02:49:06;;;;;;;280.45;267.30;;;13.70;95.30;;;;;;5035232;28;20034;-85
2023/06/11 02:51:32;;;;;;;253.02;241.15;;;13.70;95.60;;;;;;5049770;28;20555;-85
2023/06/11 02:53:57;;;;;;;378.25;360.88;;;13.70;95.70;;;;;;5035057;28;20017;-87
2023/06/11 02:56:23;;;;;;;335.70;320.20;;;13.60;95.80;;;;;;5037238;28;20041;-86
2023/06/11 02:58:49;;;;;;;310.70;296.50;;;13.60;95.90;;;;;;5038024;28;20083;-88
2023/06/11 03:01:15;;;;;;;337.95;321.92;;;13.50;96.20;;;;;;5038564;28;20384;-88
2023/06/11 03:03:40;;;;;;;328.05;312.20;;;13.50;96.40;;;;;;5036356;28;20040;-85
2023/06/11 03:06:08;;;;;;;371.23;353.90;;;13.50;96.50;;;;;;5013324;28;20052;-87
2023/06/11 03:08:34;;;;;;;431.85;409.95;;;13.50;96.60;;;;;;5034362;28;20034;-86
2023/06/11 03:10:59;;;;;;;352.17;334.38;;;13.50;96.70;;;;;;5034522;28;20038;-87
2023/06/11 03:13:25;;;;;;;326.67;311.50;;;13.50;96.80;;;;;;5013055;28;20183;-87
2023/06/11 03:15:50;;;;;;;307.88;293.85;;;13.50;96.80;;;;;;5032379;28;20377;-87
2023/06/11 03:18:16;;;;;;;304.13;290.50;;;13.40;96.80;;;;;;5033714;28;20042;-86
2023/06/11 03:20:42;;;;;;;269.33;256.88;;;13.40;97.10;;;;;;5035629;28;20046;-86
2023/06/11 03:23:09;;;;;;;225.07;215.55;;;13.40;97.20;;;;;;5035751;28;20409;-86
2023/06/11 03:25:35;;;;;;;310.38;295.73;;;13.40;97.10;;;;;;5033251;28;20022;-86
2023/06/11 03:28:02;;;;;;;286.67;273.88;;;13.40;97.10;;;;;;5033670;28;20041;-87
2023/06/11 03:30:28;;;;;;;248.02;236.70;;;13.40;97.30;;;;;;5034244;28;20056;-85
2023/06/11 03:32:53;;;;;;;292.25;278.60;;;13.40;97.20;;;;;;5038789;28;20505;-86
2023/06/11 03:35:19;;;;;;;256.45;244.80;;;13.40;97.30;;;;;;5053713;28;20389;-86
2023/06/11 03:37:45;;;;;;;161.75;154.55;;;13.50;97.40;;;;;;5034153;28;20544;-86
2023/06/11 03:40:11;;;;;;;274.55;261.48;;;13.40;97.80;;;;;;5015893;28;20563;-87
2023/06/11 03:42:36;;;;;;;278.70;266.02;;;13.40;97.50;;;;;;5034963;28;20030;-85
2023/06/11 03:45:02;;;;;;;241.13;230.57;;;13.40;97.50;;;;;;5033462;28;20040;-87
2023/06/11 03:47:28;;;;;;;171.65;164.35;;;13.50;97.60;;;;;;5036182;28;20034;-86
2023/06/11 03:49:53;;;;;;;203.90;195.00;;;13.40;97.50;;;;;;5032827;28;20111;-84
2023/06/11 03:52:19;;;;;;;269.13;257.08;;;13.40;97.50;;;;;;5033723;28;20029;-86
2023/06/11 03:54:45;;;;;;;290.65;277.38;;;13.40;97.50;;;;;;5040484;28;20116;-86
2023/06/11 03:57:12;;;;;;;287.63;274.88;;;13.40;97.50;;;;;;5031114;28;20033;-85
2023/06/11 03:59:38;;;;;;;228.40;218.25;;;13.40;97.60;;;;;;5036779;28;20386;-85
2023/06/11 04:02:04;;;;;;;346.20;329.58;;;13.50;97.60;;;;;;5033895;28;20037;-87
2023/06/11 04:04:31;;;;;;;296.50;283.58;;;13.50;97.50;;;;;;5031679;28;20017;-87
2023/06/11 04:06:57;;;;;;;249.93;238.73;;;13.50;97.50;;;;;;5034374;28;20396;-85
2023/06/11 04:09:23;;;;;;;212.60;203.10;;;13.60;97.50;;;;;;5031699;28;20033;-85
2023/06/11 04:11:48;;;;;;;288.38;275.50;;;13.70;97.60;;;;;;5033922;28;21023;-87
2023/06/11 04:14:14;;;;;;;237.20;227.52;;;13.60;97.50;;;;;;5027462;28;20030;-85
2023/06/11 04:16:40;;;;;;;191.90;183.57;;;13.70;97.60;;;;;;5030445;28;20117;-86
2023/06/11 04:19:05;;;;;;;228.48;218.13;;;13.70;97.40;;;;;;5035744;28;20078;-88
2023/06/11 04:21:31;;;;;;;191.38;182.90;;;13.70;97.40;;;;;;5030901;28;20041;-87
2023/06/11 04:23:56;;;;;;;212.23;202.55;;;13.70;97.40;;;;;;5033673;28;20037;-87
2023/06/11 04:26:23;;;;;;;325.48;309.33;;;13.80;97.30;;;;;;5014991;28;20025;-85
2023/06/11 04:28:50;;;;;;;242.13;231.45;;;13.70;97.30;;;;;;5034551;28;20527;-87
2023/06/11 04:31:16;;;;;;;227.82;218.18;;;13.70;97.60;;;;;;5031562;28;20087;-85
2023/06/11 04:33:41;;;;;;;209.32;200.07;;;13.90;97.50;;;;;;5036257;28;20033;-86
2023/06/11 04:36:08;;;;;;;111.80;106.47;;;14.00;97.00;;;;;;5034608;28;20084;-86
2023/06/11 04:38:37;;;;;;;178.95;171.43;;;14.20;96.70;;;;;;5033637;28;20048;-86
2023/06/11 04:41:05;;;;;;;196.48;187.77;;;14.30;96.40;;;;;;5035204;28;20025;-86
2023/06/11 04:43:36;;;;;;;122.78;117.32;;;14.40;96.10;;;;;;5031445;28;20033;-86
2023/06/11 04:46:04;;;;;;;174.57;167.25;;;14.50;96.00;;;;;;5035685;28;20045;-85
2023/06/11 04:48:34;;;;;;;157.13;150.52;;;14.60;95.70;;;;;;5034095;28;20550;-86
2023/06/11 04:51:01;;;;;;;99.72;95.05;;;14.70;95.60;;;;;;5030281;28;20128;-85
2023/06/11 04:53:29;;;;;;;146.52;140.38;;;14.70;95.30;;;;;;5034568;28;20547;-85
2023/06/11 04:55:57;;;;;;;178.88;171.18;;;14.80;95.10;;;;;;5032202;28;20051;-84
2023/06/11 04:58:24;;;;;;;166.35;159.15;;;15.00;95.20;;;;;;5033578;28;20087;-86
2023/06/11 05:00:52;;;;;;;160.45;153.43;;;15.10;94.50;;;;;;5037403;28;20032;-85
2023/06/11 05:03:19;;;;;;;176.50;169.13;;;15.20;94.30;;;;;;5035661;28;20120;-85
2023/06/11 05:05:51;;;;;;;148.35;142.15;;;15.20;94.50;;;;;;5033163;28;20094;-86
2023/06/11 05:08:24;;;;;;;162.60;155.65;;;15.40;94.10;;;;;;5034037;28;20124;-85
2023/06/11 05:10:52;;;;;;;126.30;120.97;;;15.50;93.80;;;;;;5038931;28;20063;-85
2023/06/11 05:13:22;;;;;;;162.38;155.38;;;15.70;93.50;;;;;;5034789;28;20041;-85
2023/06/11 05:15:48;;;;;;;126.20;120.93;;;15.70;93.10;;;;;;5034380;28;20036;-86
2023/06/11 05:18:14;;;;;;;189.93;181.82;;;15.60;93.20;;;;;;5034701;28;20057;-86
2023/06/11 05:20:40;;;;;;;179.85;172.30;;;15.60;93.30;;;;;;5033317;28;20042;-86
2023/06/11 05:23:06;;;;;;;180.32;172.88;;;15.60;93.40;;;;;;5033775;28;20033;-86
2023/06/11 05:25:31;;;;;;;190.25;182.15;;;15.70;93.50;;;;;;5049451;28;20083;-85
2023/06/11 05:28:01;;;;;;;147.18;140.98;;;15.90;93.20;;;;;;5035532;28;20079;-86
2023/06/11 05:30:29;;;;;;;219.30;209.98;;;16.00;92.70;;;;;;5037549;28;20029;-86
2023/06/11 05:32:56;;;;;;;195.05;186.90;;;16.00;93.10;;;;;;5033371;28;20315;-86
2023/06/11 05:35:25;;;;;;;128.43;122.55;;;16.10;93.00;;;;;;5033045;28;20056;-86
2023/06/11 05:37:52;;;;;;;191.25;183.40;;;16.30;92.10;;;;;;5036671;28;20044;-86
2023/06/11 05:40:17;;;;;;;181.65;174.07;;;16.30;92.60;;;;;;5031031;28;20040;-87
2023/06/11 05:42:43;;;;;;;195.00;186.68;;;16.60;91.90;;;;;;5037099;28;20037;-87
2023/06/11 05:45:08;;;;;;;202.30;193.32;;;16.60;91.60;;;;;;5041204;28;20060;-86
2023/06/11 05:47:34;;;;;;;109.25;104.55;;;16.80;91.40;;;;;;5036923;28;20823;-85
2023/06/11 05:50:00;;;;;;;141.90;135.75;;;17.10;90.30;;;;;;5041670;28;20489;-86
2023/06/11 05:52:26;;;;;;;130.93;125.10;;;17.20;90.30;;;;;;5016954;28;20045;-85
2023/06/11 05:54:52;;;;;;;124.78;119.28;;;17.30;90.20;;;;;;5039959;28;20029;-84
2023/06/11 05:57:22;;;;;;;94.82;90.65;;;17.30;89.40;;;;;;5041616;28;20165;-84
2023/06/11 05:59:47;;;;;;;118.53;113.05;;;17.50;88.90;;;;;;5040081;28;20084;-84
2023/06/11 06:02:13;;;;;;;111.97;107.35;;;17.30;89.90;;;;;;5042707;28;20501;-85
2023/06/11 06:04:40;;;;;;;135.98;129.90;;;17.40;89.10;;;;;;5042543;28;20047;-85
2023/06/11 06:07:06;;;;;;;141.45;134.93;;;17.50;88.70;;;;;;5038023;28;20045;-86
2023/06/11 06:09:33;;;;;;;112.30;107.10;;;17.60;87.10;;;;;;5042734;28;20044;-84
2023/06/11 06:11:59;;;;;;;112.20;106.60;;;17.60;87.70;;;;;;5040043;28;20087;-84
2023/06/11 06:14:24;;;;;;;154.45;147.60;;;17.90;87.20;;;;;;5043010;28;20060;-84
2023/06/11 06:16:50;;;;;;;107.18;102.57;;;17.90;86.00;;;;;;5039642;28;20029;-85
2023/06/11 06:19:16;;;;;;;158.40;151.45;;;17.90;86.40;;;;;;5036941;28;20038;-85
2023/06/11 06:21:41;;;;;;;139.23;133.35;;;18.10;85.50;;;;;;5058191;28;20140;-85
2023/06/11 06:24:07;;;;;;;129.75;123.97;;;18.10;85.00;;;;;;5037992;28;20030;-85
2023/06/11 06:26:33;;;;;;;125.13;119.68;;;18.30;85.00;;;;;;5036284;28;20021;-87
2023/06/11 06:28:59;;;;;;;102.32;97.60;;;18.50;84.50;;;;;;5028354;28;20119;-86
2023/06/11 06:31:25;;;;;;;174.88;167.45;;;18.40;82.10;;;;;;5039887;28;20402;-88
2023/06/11 06:33:52;;;;;;;158.25;151.60;;;18.40;82.80;;;;;;5036642;28;20053;-85
2023/06/11 06:36:19;;;;;;;178.85;171.48;;;18.30;82.50;;;;;;5039405;28;20043;-87
2023/06/11 06:38:46;;;;;;;200.75;191.13;;;18.60;83.50;;;;;;5037979;28;20116;-86
2023/06/11 06:41:12;;;;;;;178.35;171.35;;;18.70;82.20;;;;;;5018609;28;20022;-86
2023/06/11 06:43:38;;;;;;;168.60;161.80;;;18.80;82.60;;;;;;5038091;28;20026;-85
2023/06/11 06:46:04;;;;;;;191.23;183.80;;;18.80;81.30;;;;;;5023450;28;20029;-85
2023/06/11 06:48:31;;;;;;;192.18;184.57;;;19.00;81.20;;;;;;5042531;28;20025;-84
2023/06/11 06:50:56;;;;;;;181.85;174.85;;;19.30;79.00;;;;;;5038690;28;20083;-86
2023/06/11 06:53:22;;;;;;;190.07;182.65;;;19.20;79.00;;;;;;5038284;28;20041;-85
2023/06/11 06:55:48;;;;;;;96.88;92.60;;;19.40;79.90;;;;;;5012134;28;20054;-86
2023/06/11 06:58:13;;;;;;;103.63;99.22;;;19.50;78.50;;;;;;5030707;28;20095;-85
2023/06/11 07:00:40;;;;;;;103.45;99.10;;;19.50;79.60;;;;;;5032753;28;20057;-85
2023/06/11 07:03:06;;;;;;;180.68;169.02;;;19.60;78.50;;;;;;5013513;28;20375;-83
2023/06/11 07:05:32;;;;;;;162.35;155.30;;;19.50;77.80;;;;;;5014787;28;20040;-84
2023/06/11 07:07:57;;;;;;;111.40;106.35;;;19.60;76.90;;;;;;5014967;28;20095;-84
2023/06/11 07:10:23;;;;;;;126.38;121.18;;;19.70;77.20;;;;;;5030400;28;20056;-85
2023/06/11 07:12:49;;;;;;;164.65;158.07;;;19.90;76.40;;;;;;5032769;28;20386;-86
2023/06/11 07:15:15;;;;;;;137.38;131.65;;;20.10;74.90;;;;;;5032437;28;20040;-87
2023/06/11 07:17:40;;;;;;;191.32;182.32;;;20.10;74.20;;;;;;5034715;28;20041;-89
2023/06/11 07:20:07;;;;;;;170.55;164.00;;;20.10;74.00;;;;;;5035993;28;20038;-90
2023/06/11 07:22:33;;;;;;;311.55;291.58;;;20.40;73.50;;;;;;5029803;28;20499;-89
2023/06/11 07:25:00;;;;;;;198.90;191.25;;;20.60;72.10;;;;;;5030376;28;20029;-89
2023/06/11 07:27:27;;;;;;;217.48;207.95;;;20.40;71.80;;;;;;5033062;28;20552;-89
2023/06/11 07:29:52;;;;;;;177.57;170.55;;;20.20;72.20;;;;;;5031901;28;20040;-88
2023/06/11 07:32:18;;;;;;;214.95;206.20;;;20.30;71.40;;;;;;5039212;28;20017;-90
2023/06/11 07:34:44;;;;;;;205.18;197.05;;;20.20;71.00;;;;;;5052331;28;20061;-89
2023/06/11 07:37:10;;;;;;;195.20;187.38;;;20.30;72.60;;;;;;5034550;28;20041;-90
2023/06/11 07:39:35;;;;;;;258.05;247.65;;;20.50;70.50;;;;;;5033941;28;20580;-82
2023/06/11 07:42:01;;;;;;;306.25;293.15;;;20.30;70.00;;;;;;5027822;28;20390;-84
2023/06/11 07:44:27;;;;;;;372.88;352.50;;;20.20;71.80;;;;;;5027103;28;20334;-83
2023/06/11 07:46:52;;;;;;;341.35;327.23;;;20.00;70.60;;;;;;5045855;28;20030;-83
2023/06/11 07:49:18;;;;;;;300.95;288.88;;;20.20;71.00;;;;;;5043437;28;20846;-82
2023/06/11 07:51:46;;;;;;;288.45;276.45;;;20.50;72.10;;;;;;5037227;28;20025;-84
2023/06/11 07:54:11;;;;;;;411.83;392.35;;;20.70;70.40;;;;;;5030788;28;20033;-83
2023/06/11 07:56:37;;;;;;;249.63;240.20;;;21.10;69.20;;;;;;5016089;28;20029;-83
2023/06/11 07:59:03;;;;;;;403.35;386.02;;;21.10;68.60;;;;;;5031407;28;20567;-84
2023/06/11 08:01:29;;;;;;;410.45;392.50;;;21.40;68.20;;;;;;5028614;28;20515;-85
2023/06/11 08:03:55;;;;;;;506.30;483.70;;;21.30;67.40;;;;;;5033871;28;20120;-83
2023/06/11 08:06:21;;;;;;;568.20;539.40;;;21.50;67.80;;;;;;5033051;28;20406;-83
2023/06/11 08:08:47;;;;;;;501.40;479.27;;;21.60;68.00;;;;;;5031378;28;20111;-83
2023/06/11 08:11:13;;;;;;;523.60;497.65;;;22.00;66.30;;;;;;5035087;28;20040;-83
2023/06/11 08:13:40;;;;;;;515.65;491.23;;;21.60;66.30;;;;;;5030884;28;20037;-83
2023/06/11 08:16:07;;;;;;;529.95;502.60;;;21.50;64.70;;;;;;5034119;28;20119;-84
2023/06/11 08:18:33;;;;;;;576.67;549.05;;;20.90;66.20;;;;;;5030808;28;20474;-83
2023/06/11 08:20:58;;;;;;;631.03;598.97;;;21.10;65.70;;;;;;5027685;28;20041;-84
2023/06/11 08:23:25;;;;;;;630.80;599.97;;;21.00;65.50;;;;;;5029616;28;20037;-84
2023/06/11 08:25:50;;;;;;;645.28;612.28;;;21.10;65.50;;;;;;5037216;28;20045;-82
2023/06/11 08:28:16;;;;;;;695.63;658.58;;;21.30;64.00;;;;;;5030900;28;20101;-83
2023/06/11 08:30:42;;;;;;;550.40;523.78;;;21.30;64.40;;;;;;5027219;28;20033;-82
2023/06/11 08:33:08;;;;;;;705.45;668.80;;;21.70;62.00;;;;;;5029623;28;20080;-83
2023/06/11 08:35:34;;;;;;;746.30;701.38;;;21.90;63.30;;;;;;5027703;28;20033;-82
2023/06/11 08:38:00;;;;;;;617.65;587.70;;;22.00;60.30;;;;;;5027189;28;20427;-83
2023/06/11 08:40:26;;;;;;;670.97;635.92;;;21.90;62.10;;;;;;5029166;28;20035;-83
2023/06/11 08:42:52;;;;;;;679.35;643.20;;;21.90;61.10;;;;;;5034318;28;20059;-92
2023/06/11 08:45:18;;;;;;;767.30;722.53;;;22.00;61.40;;;;;;5028550;28;20029;-85
2023/06/11 08:47:51;;;;;;;827.65;775.35;;;22.40;60.30;;;;;;5034415;28;20029;-85
2023/06/11 08:50:20;;;;;;;911.22;846.15;;;22.30;60.70;;;;;;5029341;28;20033;-86
2023/06/11 08:52:50;;;;;;;814.22;764.05;;;22.80;58.40;;;;;;5027414;28;20405;-85
2023/06/11 08:55:15;;;;;;;825.25;773.53;;;22.90;59.80;;;;;;5027269;28;20091;-84
2023/06/11 08:57:42;;;;;;;938.03;858.00;;;23.30;59.00;;;;;;5012113;28;20049;-86
2023/06/11 09:00:09;;;;;;;938.00;858.95;;;23.20;56.10;;;;;;5028206;28;20025;-86
2023/06/11 09:02:36;;;;;;;1999.90;999.90;;;23.10;56.40;;;;;;5029918;28;20481;-86
2023/06/11 09:05:04;;;;;;;522.83;477.60;;;23.30;54.40;;;;;;5031280;28;20575;-85
2023/06/11 09:07:30;;;;;;;1999.90;999.90;;;22.90;55.50;;;;;;5030845;28;20038;-85
2023/06/11 09:10:22;;;;;;;513.72;467.05;;;22.80;55.70;;;;;;5026419;28;20037;-87
2023/06/11 09:12:48;;;;;;;1999.90;999.90;;;22.90;54.10;;;;;;5022185;28;20133;-85
2023/06/11 09:15:15;;;;;;;1999.90;999.90;;;23.20;51.70;;;;;;5030485;28;20112;-88
2023/06/11 09:17:42;;;;;;;1999.90;999.90;;;23.10;52.30;;;;;;5033400;28;20025;-87
2023/06/11 09:20:10;;;;;;;1999.90;999.90;;;23.00;54.40;;;;;;5026779;28;20575;-88
2023/06/11 09:22:37;;;;;;;1999.90;999.90;;;23.30;55.00;;;;;;5050169;28;20496;-87
2023/06/11 09:25:09;;;;;;;1999.90;999.90;;;24.00;54.90;;;;;;5029844;28;20029;-86
2023/06/11 09:27:38;;;;;;;1999.90;999.90;;;24.00;50.10;;;;;;5007631;28;20523;-87
2023/06/11 09:30:17;;;;;;;1999.90;999.90;;;23.50;50.80;;;;;;5025582;28;20136;-87
2023/06/11 09:32:45;;;;;;;1999.90;999.90;;;23.90;52.20;;;;;;5028059;28;20033;-88
2023/06/11 09:35:13;;;;;;;1999.90;999.90;;;24.30;49.50;;;;;;5046666;28;20033;-87
2023/06/11 09:37:49;;;;;;;1999.90;999.90;;;24.10;47.70;;;;;;5030033;28;20041;-87
2023/06/11 09:40:16;;;;;;;1999.90;999.90;;;24.00;50.70;;;;;;5033843;28;20033;-86
2023/06/11 09:42:46;;;;;;;1999.90;999.90;;;24.10;49.80;;;;;;5036541;28;20026;-88
2023/06/11 09:45:13;;;;;;;;;;;24.30;47.90;;;;;;5010278;28;20037;-85
2023/06/11 09:47:39;;;;;;;1999.90;999.90;;;24.40;46.70;;;;;;5035578;28;19913;-86
2023/06/11 09:50:06;;;;;;;1999.90;999.90;;;24.40;48.20;;;;;;5033042;28;20045;-86
2023/06/11 09:52:34;;;;;;;1999.90;999.90;;;24.90;48.10;;;;;;5031254;28;20091;-86
2023/06/11 09:55:01;;;;;;;1999.90;999.90;;;23.80;48.00;;;;;;5026550;28;20034;-85
2023/06/11 09:57:28;;;;;;;1999.90;999.90;;;24.00;47.90;;;;;;5033376;28;20076;-86
2023/06/11 09:59:54;;;;;;;1999.90;999.90;;;23.80;48.00;;;;;;5034966;28;20454;-85
2023/06/11 10:02:20;;;;;;;1999.90;999.90;;;23.80;48.70;;;;;;5030495;28;20022;-87
2023/06/11 10:04:46;;;;;;;1999.90;999.90;;;24.10;47.50;;;;;;5028400;28;20392;-86
2023/06/11 10:07:11;;;;;;;1999.90;999.90;;;24.10;46.20;;;;;;5026497;28;20561;-86
2023/06/11 10:09:39;;;;;;;1999.90;999.90;;;24.30;48.40;;;;;;5026473;28;20045;-87
2023/06/11 10:12:06;;;;;;;1999.90;999.90;;;24.30;45.20;;;;;;5033531;28;20033;-85
2023/06/11 10:14:32;;;;;;;1999.90;999.90;;;24.10;47.50;;;;;;5036345;28;20083;-87
2023/06/11 10:17:02;;;;;;;1999.90;999.90;;;24.70;48.80;;;;;;5031733;28;20033;-86
2023/06/11 10:19:36;;;;;;;1999.90;999.90;;;25.30;47.20;;;;;;5037389;28;20116;-86
2023/06/11 10:22:01;;;;;;;1999.90;999.90;;;25.10;42.40;;;;;;5052965;28;20312;-86
2023/06/11 10:24:28;;;;;;;1999.90;999.90;;;25.10;46.70;;;;;;5031552;28;20064;-89
2023/06/11 10:27:33;;;;;;;1999.90;999.90;;;25.40;43.70;;;;;;5031845;28;20379;-86
2023/06/11 10:29:59;;;;;;;1999.90;999.90;;;25.30;41.70;;;;;;5034874;28;20548;-87
2023/06/11 10:32:25;;;;;;;1999.90;999.90;;;25.00;41.10;;;;;;5019057;28;20132;-87
2023/06/11 10:34:58;;;;;;;1999.90;999.90;;;25.10;40.80;;;;;;5035732;28;20024;-86
2023/06/11 10:37:30;;;;;;;1999.90;999.90;;;25.60;43.10;;;;;;5037037;28;21334;-89
2023/06/11 10:39:56;;;;;;;1999.90;999.90;;;26.00;42.60;;;;;;5019077;28;20036;-84
2023/06/11 10:42:42;;;;;;;1999.90;999.90;;;25.90;40.00;;;;;;5037970;28;20029;-87
2023/06/11 10:45:13;;;;;;;1999.90;999.90;;;26.00;41.10;;;;;;5034213;28;20104;-88
2023/06/11 10:47:46;;;;;;;1999.90;999.90;;;25.40;42.00;;;;;;5040816;28;20432;-87
2023/06/11 10:50:13;;;;;;;1999.90;999.90;;;25.90;41.70;;;;;;5030463;28;20034;-88
2023/06/11 10:52:56;;;;;;;1999.90;999.90;;;26.20;40.50;;;;;;5038597;28;20108;-88
2023/06/11 10:55:23;;;;;;;1999.90;999.90;;;26.60;38.70;;;;;;5032854;28;20160;-86
2023/06/11 10:57:53;;;;;;;1999.90;999.90;;;26.70;37.70;;;;;;5034851;28;20041;-86
2023/06/11 11:00:19;;;;;;;1999.90;999.90;;;26.70;37.40;;;;;;5019150;28;20052;-87
2023/06/11 11:02:49;;;;;;;1999.90;999.90;;;27.00;38.80;;;;;;5033271;28;20489;-87
2023/06/11 11:05:15;;;;;;;1999.90;999.90;;;27.40;37.90;;;;;;5054204;28;20115;-85
2023/06/11 11:07:44;;;;;;;1999.90;999.90;;;27.20;36.00;;;;;;5035004;28;20081;-86
2023/06/11 11:10:11;;;;;;;1999.90;999.90;;;26.60;35.50;;;;;;5032648;28;20036;-86
2023/06/11 11:12:45;;;;;;;1999.90;999.90;;;27.90;36.10;;;;;;5033553;28;20037;-85
2023/06/11 11:15:14;;;;;;;1999.90;999.90;;;28.80;37.30;;;;;;5036797;28;20021;-85
2023/06/11 11:17:41;;;;;;;1999.90;999.90;;;28.00;33.50;;;;;;5038384;28;20029;-86
2023/06/11 11:20:27;;;;;;;1999.90;999.90;;;28.10;34.20;;;;;;5028569;28;20405;-86
2023/06/11 11:22:54;;;;;;;1999.90;999.90;;;28.00;32.20;;;;;;5035519;28;20073;-87
2023/06/11 11:25:29;;;;;;;1999.90;999.90;;;27.00;32.80;;;;;;5036137;28;20033;-87
2023/06/11 11:27:56;;;;;;;1999.90;999.90;;;26.90;34.70;;;;;;5034796;28;20147;-88
2023/06/11 11:30:22;;;;;;;1999.90;999.90;;;28.20;33.20;;;;;;5039109;28;20116;-84
2023/06/11 11:32:49;;;;;;;1999.90;999.90;;;29.10;32.90;;;;;;5038190;28;20032;-84
2023/06/11 11:35:15;;;;;;;1999.90;999.90;;;28.70;30.60;;;;;;5033378;28;20037;-84
2023/06/11 11:37:41;;;;;;;1999.90;999.90;;;26.80;32.40;;;;;;5039844;28;20106;-83
2023/06/11 11:40:08;;;;;;;1999.90;999.90;;;27.00;34.70;;;;;;5038368;28;20029;-88
2023/06/11 11:42:46;;;;;;;1999.90;999.90;;;27.70;32.30;;;;;;5035569;28;20060;-85
2023/06/11 11:45:14;;;;;;;1999.90;999.90;;;28.30;33.30;;;;;;5036877;28;20033;-83
2023/06/11 11:47:44;;;;;;;1999.90;999.90;;;28.50;32.60;;;;;;5033923;28;20132;-84
2023/06/11 11:50:27;;;;;;;1999.90;999.90;;;27.90;32.80;;;;;;5041900;28;20032;-83
2023/06/11 11:53:04;;;;;;;1999.90;999.90;;;28.00;31.90;;;;;;5034670;28;20029;-85
2023/06/11 11:55:36;;;;;;;1999.90;999.90;;;28.50;33.00;;;;;;5033029;28;20570;-83
2023/06/11 11:58:09;;;;;;;1999.90;999.90;;;28.90;30.80;;;;;;5035437;28;20033;-84
2023/06/11 12:00:40;;;;;;;1999.90;999.90;;;29.00;29.20;;;;;;5032471;28;20068;-83
2023/06/11 12:03:08;;;;;;;1999.90;999.90;;;29.00;28.10;;;;;;5038107;28;20056;-83
2023/06/11 12:05:35;;;;;;;1999.90;999.90;;;29.60;29.00;;;;;;5039283;28;20029;-84
2023/06/11 12:08:01;;;;;;;1999.90;999.90;;;29.50;28.20;;;;;;5037576;28;20043;-85